首页
METAR-TAF:

METAR-TAF

机场 :

Rouyn-Noranda, 魁北克, 加拿大

纬度: 48-12N, 经度: 078-50W, 海拔: 301米

当前天气观测

该预报发布于49分钟前的10:00 UTC
静风
温度 6°C
湿度 100%
气压 1013 hPa
能見度: 24.1公里
少量云层高于16000英尺
散云层高于24000英尺
碎片雾

METAR: CYUY 011000Z CCA 00000KT 15SM BCFG FEW160 SCT240 06/06 A2990 RMK AC2CI1 SLP132

时间: 06:49 (10:49 UTC)

预报

该预报发布于47分钟前的10:02 UTC
预报有效从01日的 10点(UTC)到 01日的 18点(UTC)
风速3节,风向多变
能見度: 10公里
少量云层高于16000英尺
短暂存在
从 01日的 10点(UTC)到 01日的 12点(UTC)
能見度: 3.2公里
轻雾
几率 30%
从 01日的 10点(UTC)到 01日的 12点(UTC)
能見度: 0.8公里
层高于200英尺
从 01日的 1500点(UTC)
风速8节,风向
能見度: 10公里
少量云层高于2500英尺
从 01日的 1700点(UTC)
风速12节,风向北转西北
能見度: 10公里
散云层高于4000英尺

TAF: CYUY 011002Z 0110/0118 VRB03KT P6SM FEW160 TEMPO 0110/0112 2SM BR PROB30 0110/0112 1/2SM FG VV002 FM011500 35008KT P6SM FEW025 FM011700 33012KT P6SM SCT040 RMK NXT FCST BY 011200Z

超过4000个机场的气象观测和天气预报(METAR&TAF报告)。

可查询的气象台以黄色和红色小点在地图上表示。

将鼠标移到小点上方,可查看气象台名称。

然后点击查看天气观测和预报。

如需切换地图:点击带黑十字的绿色按钮放大地图;点击带横线的绿色按钮缩小地图;或者点击绿色箭头查看邻近地区的地图。


METAR-TAF: